sensor_id;sensor_type;location;lat;lon;timestamp;P1;durP1;ratioP1;P2;durP2;ratioP2
36799;SDS011;22752;51.960;5.886;2022-09-03T00:01:42;5.88;;;2.25;;
36799;SDS011;22752;51.960;5.886;2022-09-03T00:04:31;6.70;;;2.42;;
36799;SDS011;22752;51.960;5.886;2022-09-03T00:07:11;4.60;;;2.00;;
36799;SDS011;22752;51.960;5.886;2022-09-03T00:09:48;4.88;;;2.22;;
36799;SDS011;22752;51.960;5.886;2022-09-03T00:12:25;3.58;;;1.77;;
36799;SDS011;22752;51.960;5.886;2022-09-03T00:15:01;4.70;;;1.77;;
36799;SDS011;22752;51.960;5.886;2022-09-03T00:22:47;9.25;;;2.03;;
36799;SDS011;22752;51.960;5.886;2022-09-03T00:25:23;4.18;;;1.90;;
36799;SDS011;22752;51.960;5.886;2022-09-03T00:28:16;4.57;;;2.00;;
36799;SDS011;22752;51.960;5.886;2022-09-03T00:30:46;7.43;;;1.70;;
36799;SDS011;22752;51.960;5.886;2022-09-03T00:33:20;5.40;;;1.90;;
36799;SDS011;22752;51.960;5.886;2022-09-03T00:35:50;5.00;;;2.05;;
36799;SDS011;22752;51.960;5.886;2022-09-03T00:38:33;3.13;;;1.90;;
36799;SDS011;22752;51.960;5.886;2022-09-03T00:52:04;4.60;;;1.92;;
36799;SDS011;22752;51.960;5.886;2022-09-03T01:00:13;4.00;;;1.85;;
36799;SDS011;22752;51.960;5.886;2022-09-03T01:30:44;2.93;;;1.77;;
36799;SDS011;22752;51.960;5.886;2022-09-03T01:33:34;5.85;;;1.77;;
36799;SDS011;22752;51.960;5.886;2022-09-03T01:38:58;3.17;;;1.80;;
36799;SDS011;22752;51.960;5.886;2022-09-03T01:44:39;7.53;;;2.45;;
36799;SDS011;22752;51.960;5.886;2022-09-03T01:50:20;4.80;;;2.17;;
36799;SDS011;22752;51.960;5.886;2022-09-03T01:58:45;4.97;;;2.20;;
36799;SDS011;22752;51.960;5.886;2022-09-03T02:01:25;3.85;;;1.75;;
36799;SDS011;22752;51.960;5.886;2022-09-03T02:03:55;6.25;;;2.08;;
36799;SDS011;22752;51.960;5.886;2022-09-03T02:06:24;4.45;;;1.95;;
36799;SDS011;22752;51.960;5.886;2022-09-03T02:08:55;7.30;;;2.50;;
36799;SDS011;22752;51.960;5.886;2022-09-03T02:11:21;7.55;;;2.45;;
36799;SDS011;22752;51.960;5.886;2022-09-03T02:13:48;9.75;;;2.15;;
36799;SDS011;22752;51.960;5.886;2022-09-03T02:16:20;6.65;;;2.22;;
36799;SDS011;22752;51.960;5.886;2022-09-03T02:19:00;6.28;;;2.08;;
36799;SDS011;22752;51.960;5.886;2022-09-03T02:21:31;7.10;;;2.55;;
36799;SDS011;22752;51.960;5.886;2022-09-03T02:23:59;5.88;;;2.50;;
36799;SDS011;22752;51.960;5.886;2022-09-03T02:26:27;8.57;;;2.63;;
36799;SDS011;22752;51.960;5.886;2022-09-03T02:28:52;5.50;;;2.25;;
36799;SDS011;22752;51.960;5.886;2022-09-03T02:31:19;6.18;;;2.17;;
36799;SDS011;22752;51.960;5.886;2022-09-03T02:33:46;6.75;;;2.00;;
36799;SDS011;22752;51.960;5.886;2022-09-03T02:36:13;7.22;;;2.30;;
36799;SDS011;22752;51.960;5.886;2022-09-03T02:38:42;5.43;;;2.45;;
36799;SDS011;22752;51.960;5.886;2022-09-03T02:41:08;7.47;;;2.60;;
36799;SDS011;22752;51.960;5.886;2022-09-03T02:46:09;6.15;;;2.28;;
36799;SDS011;22752;51.960;5.886;2022-09-03T02:51:06;4.68;;;2.22;;
36799;SDS011;22752;51.960;5.886;2022-09-03T02:53:32;7.05;;;2.58;;
36799;SDS011;22752;51.960;5.886;2022-09-03T02:55:58;8.43;;;2.10;;
36799;SDS011;22752;51.960;5.886;2022-09-03T02:58:25;3.67;;;2.10;;
36799;SDS011;22752;51.960;5.886;2022-09-03T03:00:51;4.80;;;2.20;;
36799;SDS011;22752;51.960;5.886;2022-09-03T03:03:17;4.85;;;2.00;;
36799;SDS011;22752;51.960;5.886;2022-09-03T03:05:44;7.63;;;2.33;;
36799;SDS011;22752;51.960;5.886;2022-09-03T03:08:13;5.80;;;2.25;;
36799;SDS011;22752;51.960;5.886;2022-09-03T03:10:41;4.57;;;1.92;;
36799;SDS011;22752;51.960;5.886;2022-09-03T03:13:10;5.32;;;2.20;;
36799;SDS011;22752;51.960;5.886;2022-09-03T03:15:36;7.55;;;2.08;;
36799;SDS011;22752;51.960;5.886;2022-09-03T03:18:01;4.57;;;2.15;;
36799;SDS011;22752;51.960;5.886;2022-09-03T03:20:27;4.00;;;1.92;;
36799;SDS011;22752;51.960;5.886;2022-09-03T03:22:53;5.18;;;2.03;;
36799;SDS011;22752;51.960;5.886;2022-09-03T03:25:18;6.25;;;2.05;;
36799;SDS011;22752;51.960;5.886;2022-09-03T03:27:44;4.25;;;1.80;;
36799;SDS011;22752;51.960;5.886;2022-09-03T03:30:10;7.70;;;1.98;;
36799;SDS011;22752;51.960;5.886;2022-09-03T03:32:37;5.80;;;2.10;;
36799;SDS011;22752;51.960;5.886;2022-09-03T03:35:03;4.38;;;1.90;;
36799;SDS011;22752;51.960;5.886;2022-09-03T03:37:30;4.10;;;1.75;;
36799;SDS011;22752;51.960;5.886;2022-09-03T03:39:56;3.67;;;1.85;;
36799;SDS011;22752;51.960;5.886;2022-09-03T03:42:22;4.70;;;2.00;;
36799;SDS011;22752;51.960;5.886;2022-09-03T03:44:48;3.08;;;1.73;;
36799;SDS011;22752;51.960;5.886;2022-09-03T03:47:14;2.03;;;1.80;;
36799;SDS011;22752;51.960;5.886;2022-09-03T03:49:41;5.70;;;2.20;;
36799;SDS011;22752;51.960;5.886;2022-09-03T03:52:07;5.18;;;2.10;;
36799;SDS011;22752;51.960;5.886;2022-09-03T03:54:33;4.10;;;2.22;;
36799;SDS011;22752;51.960;5.886;2022-09-03T03:56:59;3.72;;;2.40;;
36799;SDS011;22752;51.960;5.886;2022-09-03T03:59:24;6.18;;;1.88;;
36799;SDS011;22752;51.960;5.886;2022-09-03T04:01:50;3.88;;;2.10;;
36799;SDS011;22752;51.960;5.886;2022-09-03T04:04:18;3.42;;;1.90;;
36799;SDS011;22752;51.960;5.886;2022-09-03T04:06:44;3.90;;;2.00;;
36799;SDS011;22752;51.960;5.886;2022-09-03T04:09:10;5.65;;;2.15;;
36799;SDS011;22752;51.960;5.886;2022-09-03T04:11:35;3.97;;;2.03;;
36799;SDS011;22752;51.960;5.886;2022-09-03T04:14:01;3.65;;;1.92;;
36799;SDS011;22752;51.960;5.886;2022-09-03T04:16:27;3.10;;;1.80;;
36799;SDS011;22752;51.960;5.886;2022-09-03T04:18:53;4.13;;;1.92;;
36799;SDS011;22752;51.960;5.886;2022-09-03T04:21:20;3.17;;;1.80;;
36799;SDS011;22752;51.960;5.886;2022-09-03T04:23:51;5.20;;;1.67;;
36799;SDS011;22752;51.960;5.886;2022-09-03T04:26:22;3.58;;;1.73;;
36799;SDS011;22752;51.960;5.886;2022-09-03T04:28:50;4.63;;;1.80;;
36799;SDS011;22752;51.960;5.886;2022-09-03T04:31:17;4.05;;;1.70;;
36799;SDS011;22752;51.960;5.886;2022-09-03T04:33:44;5.10;;;2.22;;
36799;SDS011;22752;51.960;5.886;2022-09-03T04:36:10;4.43;;;1.65;;
36799;SDS011;22752;51.960;5.886;2022-09-03T04:38:39;5.30;;;1.92;;
36799;SDS011;22752;51.960;5.886;2022-09-03T04:41:06;3.63;;;1.65;;
36799;SDS011;22752;51.960;5.886;2022-09-03T04:43:34;3.72;;;1.92;;
36799;SDS011;22752;51.960;5.886;2022-09-03T04:46:00;3.10;;;1.90;;
36799;SDS011;22752;51.960;5.886;2022-09-03T04:48:28;3.53;;;1.80;;
36799;SDS011;22752;51.960;5.886;2022-09-03T04:51:00;3.35;;;1.77;;
36799;SDS011;22752;51.960;5.886;2022-09-03T04:53:29;3.55;;;2.00;;
36799;SDS011;22752;51.960;5.886;2022-09-03T04:55:55;3.40;;;1.90;;
36799;SDS011;22752;51.960;5.886;2022-09-03T04:58:21;3.55;;;1.77;;
36799;SDS011;22752;51.960;5.886;2022-09-03T05:00:47;4.75;;;2.10;;
36799;SDS011;22752;51.960;5.886;2022-09-03T05:03:12;6.03;;;2.00;;
36799;SDS011;22752;51.960;5.886;2022-09-03T05:05:38;3.22;;;2.15;;
36799;SDS011;22752;51.960;5.886;2022-09-03T05:08:03;3.03;;;1.98;;
36799;SDS011;22752;51.960;5.886;2022-09-03T05:10:30;4.45;;;1.98;;
36799;SDS011;22752;51.960;5.886;2022-09-03T05:13:03;4.88;;;2.00;;
36799;SDS011;22752;51.960;5.886;2022-09-03T05:15:30;4.15;;;2.00;;
36799;SDS011;22752;51.960;5.886;2022-09-03T05:18:00;4.28;;;1.90;;
36799;SDS011;22752;51.960;5.886;2022-09-03T05:20:27;3.42;;;1.80;;
36799;SDS011;22752;51.960;5.886;2022-09-03T05:22:54;6.28;;;1.83;;
36799;SDS011;22752;51.960;5.886;2022-09-03T05:25:20;8.65;;;2.00;;
36799;SDS011;22752;51.960;5.886;2022-09-03T05:27:47;3.38;;;1.90;;
36799;SDS011;22752;51.960;5.886;2022-09-03T05:30:13;3.90;;;1.77;;
36799;SDS011;22752;51.960;5.886;2022-09-03T05:32:39;4.22;;;2.10;;
36799;SDS011;22752;51.960;5.886;2022-09-03T05:35:05;2.75;;;1.95;;
36799;SDS011;22752;51.960;5.886;2022-09-03T05:37:31;3.60;;;1.90;;
36799;SDS011;22752;51.960;5.886;2022-09-03T05:39:57;4.55;;;1.65;;
36799;SDS011;22752;51.960;5.886;2022-09-03T05:42:23;5.47;;;2.00;;
36799;SDS011;22752;51.960;5.886;2022-09-03T05:44:49;2.67;;;1.80;;
36799;SDS011;22752;51.960;5.886;2022-09-03T05:47:15;4.35;;;1.92;;
36799;SDS011;22752;51.960;5.886;2022-09-03T05:49:41;2.85;;;1.63;;
36799;SDS011;22752;51.960;5.886;2022-09-03T05:52:06;3.13;;;1.90;;
36799;SDS011;22752;51.960;5.886;2022-09-03T05:54:33;5.45;;;1.60;;
36799;SDS011;22752;51.960;5.886;2022-09-03T05:56:59;2.30;;;1.58;;
36799;SDS011;22752;51.960;5.886;2022-09-03T05:59:25;6.10;;;1.80;;
36799;SDS011;22752;51.960;5.886;2022-09-03T06:01:51;3.67;;;1.88;;
36799;SDS011;22752;51.960;5.886;2022-09-03T06:04:17;6.10;;;1.60;;
36799;SDS011;22752;51.960;5.886;2022-09-03T06:06:44;2.00;;;1.70;;
36799;SDS011;22752;51.960;5.886;2022-09-03T06:09:15;3.30;;;1.73;;
36799;SDS011;22752;51.960;5.886;2022-09-03T06:11:42;5.22;;;1.58;;
36799;SDS011;22752;51.960;5.886;2022-09-03T06:14:09;3.05;;;1.45;;
36799;SDS011;22752;51.960;5.886;2022-09-03T06:16:37;6.15;;;1.60;;
36799;SDS011;22752;51.960;5.886;2022-09-03T06:19:04;3.15;;;1.50;;
36799;SDS011;22752;51.960;5.886;2022-09-03T06:21:33;2.45;;;1.50;;
36799;SDS011;22752;51.960;5.886;2022-09-03T06:24:00;2.42;;;1.25;;
36799;SDS011;22752;51.960;5.886;2022-09-03T06:26:27;2.08;;;1.35;;
36799;SDS011;22752;51.960;5.886;2022-09-03T06:28:53;2.97;;;1.70;;
36799;SDS011;22752;51.960;5.886;2022-09-03T06:31:20;3.42;;;1.15;;
36799;SDS011;22752;51.960;5.886;2022-09-03T06:33:46;2.92;;;1.52;;
36799;SDS011;22752;51.960;5.886;2022-09-03T06:36:13;2.63;;;1.30;;
36799;SDS011;22752;51.960;5.886;2022-09-03T06:38:40;6.20;;;1.50;;
36799;SDS011;22752;51.960;5.886;2022-09-03T06:41:08;1.48;;;1.20;;
36799;SDS011;22752;51.960;5.886;2022-09-03T06:43:39;4.47;;;1.45;;
36799;SDS011;22752;51.960;5.886;2022-09-03T06:46:10;2.45;;;1.48;;
36799;SDS011;22752;51.960;5.886;2022-09-03T06:48:38;3.92;;;1.40;;
36799;SDS011;22752;51.960;5.886;2022-09-03T06:51:11;3.55;;;1.60;;
36799;SDS011;22752;51.960;5.886;2022-09-03T06:53:40;2.65;;;1.35;;
36799;SDS011;22752;51.960;5.886;2022-09-03T06:56:11;3.55;;;1.55;;
36799;SDS011;22752;51.960;5.886;2022-09-03T06:58:47;2.38;;;1.27;;
36799;SDS011;22752;51.960;5.886;2022-09-03T07:01:18;2.60;;;1.30;;
36799;SDS011;22752;51.960;5.886;2022-09-03T07:03:51;2.67;;;1.63;;
36799;SDS011;22752;51.960;5.886;2022-09-03T07:06:25;1.92;;;1.27;;
36799;SDS011;22752;51.960;5.886;2022-09-03T07:08:53;5.80;;;1.55;;
36799;SDS011;22752;51.960;5.886;2022-09-03T07:11:22;4.95;;;1.50;;
36799;SDS011;22752;51.960;5.886;2022-09-03T07:13:50;1.50;;;1.33;;
36799;SDS011;22752;51.960;5.886;2022-09-03T07:16:19;4.30;;;1.45;;
36799;SDS011;22752;51.960;5.886;2022-09-03T07:18:47;2.90;;;1.52;;
36799;SDS011;22752;51.960;5.886;2022-09-03T07:21:14;1.77;;;1.33;;
36799;SDS011;22752;51.960;5.886;2022-09-03T07:23:42;4.68;;;1.42;;
36799;SDS011;22752;51.960;5.886;2022-09-03T07:26:13;3.17;;;1.58;;
36799;SDS011;22752;51.960;5.886;2022-09-03T07:28:40;2.70;;;1.60;;
36799;SDS011;22752;51.960;5.886;2022-09-03T07:31:12;7.63;;;1.50;;
36799;SDS011;22752;51.960;5.886;2022-09-03T07:33:43;2.22;;;1.30;;
36799;SDS011;22752;51.960;5.886;2022-09-03T07:36:13;3.53;;;1.30;;
36799;SDS011;22752;51.960;5.886;2022-09-03T07:38:40;2.38;;;1.30;;
36799;SDS011;22752;51.960;5.886;2022-09-03T07:41:09;4.88;;;1.55;;
36799;SDS011;22752;51.960;5.886;2022-09-03T07:43:36;4.20;;;1.60;;
36799;SDS011;22752;51.960;5.886;2022-09-03T07:46:05;4.00;;;1.40;;
36799;SDS011;22752;51.960;5.886;2022-09-03T07:48:32;1.55;;;1.40;;
36799;SDS011;22752;51.960;5.886;2022-09-03T07:50:58;2.95;;;1.48;;
36799;SDS011;22752;51.960;5.886;2022-09-03T07:53:27;3.08;;;1.20;;
36799;SDS011;22752;51.960;5.886;2022-09-03T07:55:59;5.05;;;1.50;;
36799;SDS011;22752;51.960;5.886;2022-09-03T07:58:30;6.53;;;1.52;;
36799;SDS011;22752;51.960;5.886;2022-09-03T08:00:57;2.08;;;1.00;;
36799;SDS011;22752;51.960;5.886;2022-09-03T08:03:23;2.85;;;1.13;;
36799;SDS011;22752;51.960;5.886;2022-09-03T08:05:49;5.85;;;1.40;;
36799;SDS011;22752;51.960;5.886;2022-09-03T08:08:14;3.35;;;1.05;;
36799;SDS011;22752;51.960;5.886;2022-09-03T08:10:42;7.95;;;1.60;;
36799;SDS011;22752;51.960;5.886;2022-09-03T08:13:07;5.65;;;1.40;;
36799;SDS011;22752;51.960;5.886;2022-09-03T08:15:34;2.50;;;1.40;;
36799;SDS011;22752;51.960;5.886;2022-09-03T08:18:01;5.68;;;2.08;;
36799;SDS011;22752;51.960;5.886;2022-09-03T08:20:27;2.83;;;1.80;;
36799;SDS011;22752;51.960;5.886;2022-09-03T08:23:02;5.07;;;1.88;;
36799;SDS011;22752;51.960;5.886;2022-09-03T08:25:28;5.07;;;1.60;;
36799;SDS011;22752;51.960;5.886;2022-09-03T08:27:56;3.83;;;1.63;;
36799;SDS011;22752;51.960;5.886;2022-09-03T08:30:22;2.95;;;1.30;;
36799;SDS011;22752;51.960;5.886;2022-09-03T08:32:49;3.33;;;1.23;;
36799;SDS011;22752;51.960;5.886;2022-09-03T08:35:14;5.20;;;1.55;;
36799;SDS011;22752;51.960;5.886;2022-09-03T08:37:40;2.72;;;1.38;;
36799;SDS011;22752;51.960;5.886;2022-09-03T08:40:06;3.58;;;1.30;;
36799;SDS011;22752;51.960;5.886;2022-09-03T08:42:48;3.90;;;1.20;;
36799;SDS011;22752;51.960;5.886;2022-09-03T08:45:42;1.88;;;1.40;;
36799;SDS011;22752;51.960;5.886;2022-09-03T08:48:10;4.10;;;1.30;;
36799;SDS011;22752;51.960;5.886;2022-09-03T08:50:42;3.95;;;1.40;;
36799;SDS011;22752;51.960;5.886;2022-09-03T08:55:51;4.05;;;1.38;;
36799;SDS011;22752;51.960;5.886;2022-09-03T08:58:26;6.22;;;1.20;;
36799;SDS011;22752;51.960;5.886;2022-09-03T09:14:26;3.97;;;1.55;;
36799;SDS011;22752;51.960;5.886;2022-09-03T09:17:06;2.78;;;1.40;;
36799;SDS011;22752;51.960;5.886;2022-09-03T09:22:32;4.85;;;1.40;;
36799;SDS011;22752;51.960;5.886;2022-09-03T09:25:07;2.95;;;1.30;;
36799;SDS011;22752;51.960;5.886;2022-09-03T09:30:17;1.70;;;1.10;;
36799;SDS011;22752;51.960;5.886;2022-09-03T09:32:44;2.65;;;1.38;;
36799;SDS011;22752;51.960;5.886;2022-09-03T09:35:11;5.97;;;1.25;;
36799;SDS011;22752;51.960;5.886;2022-09-03T09:37:48;5.68;;;1.38;;
36799;SDS011;22752;51.960;5.886;2022-09-03T09:40:22;3.78;;;1.10;;
36799;SDS011;22752;51.960;5.886;2022-09-03T09:45:39;5.43;;;1.23;;
36799;SDS011;22752;51.960;5.886;2022-09-03T09:48:07;2.05;;;1.25;;
36799;SDS011;22752;51.960;5.886;2022-09-03T09:50:40;2.40;;;1.40;;
36799;SDS011;22752;51.960;5.886;2022-09-03T09:53:07;3.78;;;1.45;;
36799;SDS011;22752;51.960;5.886;2022-09-03T09:56:18;5.47;;;1.30;;
36799;SDS011;22752;51.960;5.886;2022-09-03T09:58:44;2.42;;;1.30;;
36799;SDS011;22752;51.960;5.886;2022-09-03T10:01:11;2.55;;;1.30;;
36799;SDS011;22752;51.960;5.886;2022-09-03T10:03:56;2.90;;;1.40;;
36799;SDS011;22752;51.960;5.886;2022-09-03T10:06:27;5.47;;;1.38;;
36799;SDS011;22752;51.960;5.886;2022-09-03T10:09:15;2.53;;;1.25;;
36799;SDS011;22752;51.960;5.886;2022-09-03T10:11:43;2.63;;;1.20;;
36799;SDS011;22752;51.960;5.886;2022-09-03T10:14:20;3.47;;;1.20;;
36799;SDS011;22752;51.960;5.886;2022-09-03T10:16:54;2.42;;;1.20;;
36799;SDS011;22752;51.960;5.886;2022-09-03T10:19:49;4.80;;;1.40;;
36799;SDS011;22752;51.960;5.886;2022-09-03T10:22:48;3.03;;;1.60;;
36799;SDS011;22752;51.960;5.886;2022-09-03T10:25:19;3.60;;;1.30;;
36799;SDS011;22752;51.960;5.886;2022-09-03T10:27:49;4.07;;;1.30;;
36799;SDS011;22752;51.960;5.886;2022-09-03T10:30:17;4.50;;;1.40;;
36799;SDS011;22752;51.960;5.886;2022-09-03T10:35:26;1.45;;;1.23;;
36799;SDS011;22752;51.960;5.886;2022-09-03T10:46:16;4.78;;;1.70;;
36799;SDS011;22752;51.960;5.886;2022-09-03T10:48:54;2.17;;;1.30;;
36799;SDS011;22752;51.960;5.886;2022-09-03T10:51:34;2.47;;;1.50;;
36799;SDS011;22752;51.960;5.886;2022-09-03T11:02:23;5.28;;;1.38;;
36799;SDS011;22752;51.960;5.886;2022-09-03T11:08:01;4.93;;;1.30;;
36799;SDS011;22752;51.960;5.886;2022-09-03T11:10:42;2.17;;;1.40;;
36799;SDS011;22752;51.960;5.886;2022-09-03T11:13:19;3.65;;;1.13;;
36799;SDS011;22752;51.960;5.886;2022-09-03T11:16:01;2.50;;;1.20;;
36799;SDS011;22752;51.960;5.886;2022-09-03T11:18:35;1.63;;;1.08;;
36799;SDS011;22752;51.960;5.886;2022-09-03T11:21:09;4.80;;;1.23;;
36799;SDS011;22752;51.960;5.886;2022-09-03T11:23:42;6.88;;;1.25;;
36799;SDS011;22752;51.960;5.886;2022-09-03T11:26:12;2.30;;;1.30;;
36799;SDS011;22752;51.960;5.886;2022-09-03T11:28:57;4.75;;;1.70;;
36799;SDS011;22752;51.960;5.886;2022-09-03T11:34:24;5.45;;;1.55;;
36799;SDS011;22752;51.960;5.886;2022-09-03T11:36:51;4.15;;;1.30;;
36799;SDS011;22752;51.960;5.886;2022-09-03T11:39:33;2.13;;;1.30;;
36799;SDS011;22752;51.960;5.886;2022-09-03T11:50:19;4.03;;;1.30;;
36799;SDS011;22752;51.960;5.886;2022-09-03T11:53:37;5.45;;;1.58;;
36799;SDS011;22752;51.960;5.886;2022-09-03T11:58:39;4.45;;;1.30;;
36799;SDS011;22752;51.960;5.886;2022-09-03T12:01:13;5.00;;;1.42;;
36799;SDS011;22752;51.960;5.886;2022-09-03T12:03:52;2.08;;;1.15;;
36799;SDS011;22752;51.960;5.886;2022-09-03T12:11:43;2.55;;;1.25;;
36799;SDS011;22752;51.960;5.886;2022-09-03T12:14:25;4.07;;;1.35;;
36799;SDS011;22752;51.960;5.886;2022-09-03T12:19:50;4.95;;;1.50;;
36799;SDS011;22752;51.960;5.886;2022-09-03T12:22:19;1.50;;;1.30;;
36799;SDS011;22752;51.960;5.886;2022-09-03T12:24:47;2.70;;;1.40;;
36799;SDS011;22752;51.960;5.886;2022-09-03T12:27:24;3.72;;;1.58;;
36799;SDS011;22752;51.960;5.886;2022-09-03T12:29:55;3.97;;;1.30;;
36799;SDS011;22752;51.960;5.886;2022-09-03T12:32:24;3.13;;;1.30;;
36799;SDS011;22752;51.960;5.886;2022-09-03T12:37:22;2.60;;;1.10;;
36799;SDS011;22752;51.960;5.886;2022-09-03T12:39:53;2.75;;;1.42;;
36799;SDS011;22752;51.960;5.886;2022-09-03T12:42:27;5.25;;;1.20;;
36799;SDS011;22752;51.960;5.886;2022-09-03T12:44:55;2.95;;;1.23;;
36799;SDS011;22752;51.960;5.886;2022-09-03T12:47:39;3.00;;;1.65;;
36799;SDS011;22752;51.960;5.886;2022-09-03T12:50:13;3.83;;;1.73;;
36799;SDS011;22752;51.960;5.886;2022-09-03T12:52:50;3.88;;;1.60;;
36799;SDS011;22752;51.960;5.886;2022-09-03T12:55:42;5.50;;;1.58;;
36799;SDS011;22752;51.960;5.886;2022-09-03T12:58:12;10.07;;;1.63;;
36799;SDS011;22752;51.960;5.886;2022-09-03T13:00:50;3.25;;;1.55;;
36799;SDS011;22752;51.960;5.886;2022-09-03T13:03:54;4.50;;;1.48;;
36799;SDS011;22752;51.960;5.886;2022-09-03T13:09:15;5.68;;;1.80;;
36799;SDS011;22752;51.960;5.886;2022-09-03T13:11:46;3.33;;;1.80;;
36799;SDS011;22752;51.960;5.886;2022-09-03T13:14:13;2.95;;;1.70;;
36799;SDS011;22752;51.960;5.886;2022-09-03T13:27:53;5.60;;;1.80;;
36799;SDS011;22752;51.960;5.886;2022-09-03T13:30:33;4.30;;;1.70;;
36799;SDS011;22752;51.960;5.886;2022-09-03T13:33:23;4.03;;;1.63;;
36799;SDS011;22752;51.960;5.886;2022-09-03T13:38:42;3.58;;;1.80;;
36799;SDS011;22752;51.960;5.886;2022-09-03T13:44:33;3.15;;;1.70;;
36799;SDS011;22752;51.960;5.886;2022-09-03T13:47:28;3.15;;;1.85;;
36799;SDS011;22752;51.960;5.886;2022-09-03T13:52:56;4.55;;;1.90;;
36799;SDS011;22752;51.960;5.886;2022-09-03T13:58:49;3.75;;;1.80;;
36799;SDS011;22752;51.960;5.886;2022-09-03T14:10:33;5.30;;;1.90;;
36799;SDS011;22752;51.960;5.886;2022-09-03T14:13:17;3.38;;;1.90;;
36799;SDS011;22752;51.960;5.886;2022-09-03T14:16:06;5.05;;;2.00;;
36799;SDS011;22752;51.960;5.886;2022-09-03T14:18:39;3.47;;;1.60;;
36799;SDS011;22752;51.960;5.886;2022-09-03T14:21:30;5.00;;;1.95;;
36799;SDS011;22752;51.960;5.886;2022-09-03T14:24:05;3.83;;;2.13;;
36799;SDS011;22752;51.960;5.886;2022-09-03T14:26:59;5.10;;;1.80;;
36799;SDS011;22752;51.960;5.886;2022-09-03T14:29:29;2.85;;;1.70;;
36799;SDS011;22752;51.960;5.886;2022-09-03T14:34:44;2.97;;;1.90;;
36799;SDS011;22752;51.960;5.886;2022-09-03T14:43:18;2.53;;;1.80;;
36799;SDS011;22752;51.960;5.886;2022-09-03T15:05:44;2.40;;;1.50;;
36799;SDS011;22752;51.960;5.886;2022-09-03T15:11:20;5.38;;;1.92;;
36799;SDS011;22752;51.960;5.886;2022-09-03T15:14:23;6.22;;;1.52;;
36799;SDS011;22752;51.960;5.886;2022-09-03T15:36:56;3.78;;;1.80;;
36799;SDS011;22752;51.960;5.886;2022-09-03T15:39:32;3.80;;;1.73;;
36799;SDS011;22752;51.960;5.886;2022-09-03T15:42:09;4.95;;;1.77;;
36799;SDS011;22752;51.960;5.886;2022-09-03T15:44:42;4.72;;;1.65;;
36799;SDS011;22752;51.960;5.886;2022-09-03T15:47:12;3.05;;;1.70;;
36799;SDS011;22752;51.960;5.886;2022-09-03T15:49:57;2.90;;;1.90;;
36799;SDS011;22752;51.960;5.886;2022-09-03T15:55:06;2.65;;;1.80;;
36799;SDS011;22752;51.960;5.886;2022-09-03T15:57:57;5.03;;;2.10;;
36799;SDS011;22752;51.960;5.886;2022-09-03T16:00:57;3.58;;;1.83;;
36799;SDS011;22752;51.960;5.886;2022-09-03T16:03:32;3.83;;;1.60;;
36799;SDS011;22752;51.960;5.886;2022-09-03T16:06:00;6.40;;;1.90;;
36799;SDS011;22752;51.960;5.886;2022-09-03T16:08:42;2.15;;;1.77;;
36799;SDS011;22752;51.960;5.886;2022-09-03T16:22:18;4.35;;;1.80;;
36799;SDS011;22752;51.960;5.886;2022-09-03T16:25:01;2.80;;;1.85;;
36799;SDS011;22752;51.960;5.886;2022-09-03T16:27:50;2.58;;;1.80;;
36799;SDS011;22752;51.960;5.886;2022-09-03T16:30:42;2.92;;;1.83;;
36799;SDS011;22752;51.960;5.886;2022-09-03T16:33:21;2.50;;;1.60;;
36799;SDS011;22752;51.960;5.886;2022-09-03T16:41:33;4.43;;;1.98;;
36799;SDS011;22752;51.960;5.886;2022-09-03T16:46:52;4.40;;;1.80;;
36799;SDS011;22752;51.960;5.886;2022-09-03T16:55:03;4.68;;;2.00;;
36799;SDS011;22752;51.960;5.886;2022-09-03T17:08:47;4.80;;;1.90;;
36799;SDS011;22752;51.960;5.886;2022-09-03T17:11:40;4.55;;;1.73;;
36799;SDS011;22752;51.960;5.886;2022-09-03T17:14:34;5.60;;;2.30;;
36799;SDS011;22752;51.960;5.886;2022-09-03T17:22:44;4.15;;;2.30;;
36799;SDS011;22752;51.960;5.886;2022-09-03T17:28:21;2.00;;;1.80;;
36799;SDS011;22752;51.960;5.886;2022-09-03T17:31:18;2.35;;;2.15;;
36799;SDS011;22752;51.960;5.886;2022-09-03T17:36:26;2.22;;;1.80;;
36799;SDS011;22752;51.960;5.886;2022-09-03T17:47:26;5.85;;;2.38;;
36799;SDS011;22752;51.960;5.886;2022-09-03T17:50:16;3.58;;;1.77;;
36799;SDS011;22752;51.960;5.886;2022-09-03T18:00:37;3.15;;;1.60;;
36799;SDS011;22752;51.960;5.886;2022-09-03T18:03:30;3.20;;;1.90;;
36799;SDS011;22752;51.960;5.886;2022-09-03T18:06:08;2.80;;;1.85;;
36799;SDS011;22752;51.960;5.886;2022-09-03T18:09:00;2.53;;;1.70;;
36799;SDS011;22752;51.960;5.886;2022-09-03T18:11:48;5.25;;;1.60;;
36799;SDS011;22752;51.960;5.886;2022-09-03T18:17:05;2.60;;;1.70;;
36799;SDS011;22752;51.960;5.886;2022-09-03T18:19:37;1.83;;;1.70;;
36799;SDS011;22752;51.960;5.886;2022-09-03T18:22:28;1.80;;;1.52;;
36799;SDS011;22752;51.960;5.886;2022-09-03T18:25:19;3.45;;;1.88;;
36799;SDS011;22752;51.960;5.886;2022-09-03T18:28:08;3.97;;;1.90;;
36799;SDS011;22752;51.960;5.886;2022-09-03T18:30:56;3.15;;;1.67;;
36799;SDS011;22752;51.960;5.886;2022-09-03T18:33:40;2.85;;;2.05;;
36799;SDS011;22752;51.960;5.886;2022-09-03T18:36:24;5.00;;;1.90;;
36799;SDS011;22752;51.960;5.886;2022-09-03T18:39:26;1.95;;;1.83;;
36799;SDS011;22752;51.960;5.886;2022-09-03T18:45:14;2.15;;;1.85;;
36799;SDS011;22752;51.960;5.886;2022-09-03T18:51:36;4.40;;;2.08;;
36799;SDS011;22752;51.960;5.886;2022-09-03T18:54:35;2.53;;;2.00;;
36799;SDS011;22752;51.960;5.886;2022-09-03T18:58:21;2.90;;;1.95;;
36799;SDS011;22752;51.960;5.886;2022-09-03T19:01:10;2.72;;;2.10;;
36799;SDS011;22752;51.960;5.886;2022-09-03T19:07:14;2.63;;;2.20;;
36799;SDS011;22752;51.960;5.886;2022-09-03T19:10:33;3.55;;;2.30;;
36799;SDS011;22752;51.960;5.886;2022-09-03T19:13:30;2.67;;;2.20;;
36799;SDS011;22752;51.960;5.886;2022-09-03T19:22:26;4.53;;;3.05;;
36799;SDS011;22752;51.960;5.886;2022-09-03T19:25:15;3.63;;;2.58;;
36799;SDS011;22752;51.960;5.886;2022-09-03T19:28:06;3.28;;;2.70;;
36799;SDS011;22752;51.960;5.886;2022-09-03T19:31:02;3.20;;;2.63;;
36799;SDS011;22752;51.960;5.886;2022-09-03T19:37:22;4.60;;;3.35;;
36799;SDS011;22752;51.960;5.886;2022-09-03T19:55:11;3.92;;;3.10;;
36799;SDS011;22752;51.960;5.886;2022-09-03T19:58:03;4.20;;;3.10;;
36799;SDS011;22752;51.960;5.886;2022-09-03T20:00:47;4.13;;;3.17;;
36799;SDS011;22752;51.960;5.886;2022-09-03T20:03:32;5.55;;;3.25;;
36799;SDS011;22752;51.960;5.886;2022-09-03T20:06:18;2.90;;;2.60;;
36799;SDS011;22752;51.960;5.886;2022-09-03T20:09:06;5.25;;;2.80;;
36799;SDS011;22752;51.960;5.886;2022-09-03T20:11:53;4.03;;;3.20;;
36799;SDS011;22752;51.960;5.886;2022-09-03T20:14:22;3.75;;;2.85;;
36799;SDS011;22752;51.960;5.886;2022-09-03T20:19:43;5.18;;;2.75;;
36799;SDS011;22752;51.960;5.886;2022-09-03T20:22:31;5.35;;;2.80;;
36799;SDS011;22752;51.960;5.886;2022-09-03T20:28:09;5.70;;;3.00;;
36799;SDS011;22752;51.960;5.886;2022-09-03T20:41:37;4.55;;;2.97;;
36799;SDS011;22752;51.960;5.886;2022-09-03T20:47:14;5.22;;;3.00;;
36799;SDS011;22752;51.960;5.886;2022-09-03T20:50:23;3.53;;;3.10;;
36799;SDS011;22752;51.960;5.886;2022-09-03T20:55:43;5.60;;;3.30;;
36799;SDS011;22752;51.960;5.886;2022-09-03T21:01:08;4.63;;;3.33;;
36799;SDS011;22752;51.960;5.886;2022-09-03T21:06:53;6.43;;;2.90;;
36799;SDS011;22752;51.960;5.886;2022-09-03T21:21:20;5.60;;;4.55;;
36799;SDS011;22752;51.960;5.886;2022-09-03T21:26:56;10.55;;;5.03;;
36799;SDS011;22752;51.960;5.886;2022-09-03T21:29:31;5.63;;;4.72;;
36799;SDS011;22752;51.960;5.886;2022-09-03T21:32:09;7.30;;;5.00;;
36799;SDS011;22752;51.960;5.886;2022-09-03T21:34:38;9.27;;;5.13;;
36799;SDS011;22752;51.960;5.886;2022-09-03T21:37:10;8.15;;;5.38;;
36799;SDS011;22752;51.960;5.886;2022-09-03T21:42:23;7.90;;;5.47;;
36799;SDS011;22752;51.960;5.886;2022-09-03T21:45:05;8.05;;;5.32;;
36799;SDS011;22752;51.960;5.886;2022-09-03T21:47:36;7.88;;;5.50;;